Time;durP1;ratioP1;P1;durP2;ratioP2;P2;SDS_P1;SDS_P2;PMS_P1;PMS_P2;Temp;Humidity;BMP_temperature;BMP_pressure;BME280_temperature;BME280_humidity;BME280_pressure;Samples;Min_cycle;Max_cycle;Signal;HPM_P1;HPM_P2
2024/04/10 00:01:20;;;;;;;6.75;2.50;;;26.60;43.80;;;;;;6704273;25;79711;-59
2024/04/10 00:04:21;;;;;;;7.05;2.85;;;26.50;43.50;;;;;;6711465;25;79513;-59
2024/04/10 00:07:22;;;;;;;3.25;2.15;;;26.50;43.80;;;;;;6711066;25;80594;-59
2024/04/10 00:10:22;;;;;;;6.75;2.33;;;26.50;44.80;;;;;;6712856;25;79612;-59
2024/04/10 00:13:23;;;;;;;6.18;2.50;;;26.50;43.70;;;;;;6712188;25;80594;-60
2024/04/10 00:16:23;;;;;;;5.80;2.60;;;26.50;43.80;;;;;;6712362;25;78717;-60
2024/04/10 00:19:24;;;;;;;7.85;3.05;;;26.50;44.20;;;;;;6711743;25;78982;-59
2024/04/10 00:22:24;;;;;;;5.25;2.92;;;26.50;43.90;;;;;;6713849;25;86738;-59
2024/04/10 00:25:25;;;;;;;6.55;2.17;;;26.50;44.00;;;;;;6708411;25;79314;-59
2024/04/10 00:28:25;;;;;;;4.25;2.70;;;26.50;43.80;;;;;;6711265;25;79966;-59
2024/04/10 00:31:26;;;;;;;4.28;2.67;;;26.50;43.90;;;;;;6709649;25;79483;-60
2024/04/10 00:34:26;;;;;;;5.70;2.17;;;26.50;44.20;;;;;;6711556;25;78838;-61
2024/04/10 00:37:27;;;;;;;4.50;2.33;;;26.50;44.00;;;;;;6709465;25;83873;-60
2024/04/10 00:40:27;;;;;;;6.00;2.28;;;26.50;44.40;;;;;;6711937;25;79236;-60
2024/04/10 00:43:28;;;;;;;8.25;2.25;;;26.50;44.20;;;;;;6712397;25;79171;-60
2024/04/10 00:46:29;;;;;;;5.75;2.33;;;26.50;44.30;;;;;;6710432;25;79328;-62
2024/04/10 00:49:29;;;;;;;4.40;2.25;;;26.50;44.30;;;;;;6710491;25;78957;-53
2024/04/10 00:52:30;;;;;;;5.32;2.40;;;26.50;44.30;;;;;;6711622;25;78655;-55
2024/04/10 00:55:30;;;;;;;6.07;2.60;;;26.50;44.20;;;;;;6711239;25;78947;-53
2024/04/10 00:58:31;;;;;;;6.03;2.45;;;26.50;44.30;;;;;;6711065;25;79155;-54
2024/04/10 01:01:31;;;;;;;4.13;2.08;;;26.60;44.30;;;;;;6687377;25;78613;-55
2024/04/10 01:04:32;;;;;;;3.88;2.17;;;26.50;44.20;;;;;;6675496;25;79193;-55
2024/04/10 01:07:34;;;;;;;3.72;2.22;;;26.50;44.30;;;;;;6689789;25;80288;-58
2024/04/10 01:10:34;;;;;;;5.10;2.45;;;26.50;44.20;;;;;;6705757;25;79103;-58
2024/04/10 01:13:35;;;;;;;5.47;2.65;;;26.50;44.30;;;;;;6705461;25;82367;-56
2024/04/10 01:16:35;;;;;;;5.70;2.53;;;26.60;44.30;;;;;;6708740;25;79261;-56
2024/04/10 01:19:36;;;;;;;6.90;2.20;;;26.50;44.20;;;;;;6711911;25;79220;-56
2024/04/10 01:22:36;;;;;;;3.53;2.58;;;26.50;44.10;;;;;;6710892;25;83140;-55
2024/04/10 01:25:37;;;;;;;3.33;2.22;;;26.50;44.20;;;;;;6712114;25;79001;-54
2024/04/10 01:28:37;;;;;;;8.98;2.95;;;26.50;44.20;;;;;;6709008;25;80592;-56
2024/04/10 01:31:38;;;;;;;4.15;2.25;;;26.50;44.20;;;;;;6709216;25;79481;-58
2024/04/10 01:34:38;;;;;;;5.80;2.40;;;26.50;44.20;;;;;;6711173;25;79412;-57
2024/04/10 01:37:39;;;;;;;9.35;2.90;;;26.50;44.30;;;;;;6709549;25;79839;-57
2024/04/10 01:40:39;;;;;;;4.40;2.25;;;26.50;44.30;;;;;;6714679;25;79220;-54
2024/04/10 01:43:40;;;;;;;4.78;2.67;;;26.50;44.40;;;;;;6714553;25;78867;-58
2024/04/10 01:46:41;;;;;;;6.82;3.17;;;26.50;44.20;;;;;;6714121;25;78876;-55
2024/04/10 01:49:41;;;;;;;4.82;2.50;;;26.50;44.40;;;;;;6716119;25;78866;-55
2024/04/10 01:52:42;;;;;;;4.30;2.78;;;26.50;44.20;;;;;;6670574;25;81846;-55
2024/04/10 01:55:42;;;;;;;6.13;2.85;;;26.50;44.20;;;;;;6713108;25;80519;-53
2024/04/10 01:58:43;;;;;;;8.60;3.13;;;26.50;44.50;;;;;;6715183;25;79967;-57
2024/04/10 02:01:43;;;;;;;7.50;2.70;;;26.50;44.50;;;;;;6714831;25;83499;-57
2024/04/10 02:04:44;;;;;;;5.43;2.53;;;26.50;44.40;;;;;;6715628;25;78860;-61
2024/04/10 02:07:45;;;;;;;6.15;2.50;;;26.50;44.50;;;;;;6713390;25;84835;-61
2024/04/10 02:10:45;;;;;;;9.95;3.65;;;26.40;44.30;;;;;;6716649;25;79457;-61
2024/04/10 02:13:46;;;;;;;6.85;3.47;;;26.50;44.40;;;;;;6713114;25;79039;-61
2024/04/10 02:16:46;;;;;;;6.47;2.85;;;26.50;44.40;;;;;;6714292;25;78962;-62
2024/04/10 02:19:47;;;;;;;5.72;3.03;;;26.50;44.50;;;;;;6715250;25;78846;-62
2024/04/10 02:22:47;;;;;;;8.05;3.60;;;26.50;44.50;;;;;;6713826;25;78980;-62
2024/04/10 02:25:48;;;;;;;7.97;3.80;;;26.50;44.50;;;;;;6715498;25;79641;-61
2024/04/10 02:28:48;;;;;;;9.23;4.00;;;26.50;44.50;;;;;;6715080;25;78836;-61
2024/04/10 02:31:49;;;;;;;7.13;3.20;;;26.50;44.30;;;;;;6703776;25;81945;-61
2024/04/10 02:34:50;;;;;;;5.85;3.67;;;26.50;44.50;;;;;;6715424;25;86821;-61
2024/04/10 02:37:50;;;;;;;10.57;3.92;;;26.50;44.50;;;;;;6713688;25;80688;-61
2024/04/10 02:40:51;;;;;;;5.72;2.97;;;26.50;44.60;;;;;;6714634;25;79554;-56
2024/04/10 02:43:51;;;;;;;8.68;3.65;;;26.50;44.50;;;;;;6714699;25;78479;-54
2024/04/10 02:46:52;;;;;;;7.18;3.75;;;26.50;44.60;;;;;;6714663;25;79018;-55
2024/04/10 02:49:52;;;;;;;11.15;4.18;;;26.50;44.50;;;;;;6714360;25;78804;-51
2024/04/10 02:52:53;;;;;;;7.85;3.88;;;26.50;44.70;;;;;;6714176;25;83421;-53
2024/04/10 02:55:53;;;;;;;8.10;4.20;;;26.40;44.70;;;;;;6714059;25;79056;-56
2024/04/10 02:58:54;;;;;;;9.90;4.13;;;26.40;44.90;;;;;;6704905;25;80691;-60
2024/04/10 03:01:55;;;;;;;13.80;4.72;;;26.50;45.20;;;;;;6709711;25;78867;-61
2024/04/10 03:04:55;;;;;;;11.75;4.40;;;26.50;45.10;;;;;;6713607;25;79325;-61
2024/04/10 03:07:57;;;;;;;12.35;4.97;;;26.50;45.00;;;;;;6709341;25;82873;-60
2024/04/10 03:10:58;;;;;;;9.18;4.07;;;26.50;45.20;;;;;;6710458;25;79024;-61
2024/04/10 03:13:58;;;;;;;11.32;4.43;;;26.40;45.10;;;;;;6713855;25;83286;-60
2024/04/10 03:16:59;;;;;;;8.95;4.43;;;26.40;45.10;;;;;;6710271;25;78902;-59
2024/04/10 03:19:59;;;;;;;13.50;4.22;;;26.40;45.40;;;;;;6713473;25;78822;-59
2024/04/10 03:23:00;;;;;;;10.23;4.57;;;26.40;45.40;;;;;;6709964;25;78832;-60
2024/04/10 03:26:00;;;;;;;9.88;4.97;;;26.40;45.90;;;;;;6709747;25;81693;-62
2024/04/10 03:29:01;;;;;;;12.40;4.70;;;26.40;45.80;;;;;;6713743;25;79028;-56
2024/04/10 03:32:01;;;;;;;11.82;4.93;;;26.40;45.60;;;;;;6712490;25;79383;-60
2024/04/10 03:35:03;;;;;;;12.75;5.43;;;26.40;45.80;;;;;;6711748;25;78879;-56
2024/04/10 03:38:05;;;;;;;11.95;4.35;;;26.40;45.80;;;;;;6713721;25;79223;-58
2024/04/10 03:41:06;;;;;;;10.93;4.53;;;26.30;45.80;;;;;;6701120;25;82433;-50
2024/04/10 03:44:06;;;;;;;11.10;4.63;;;26.30;45.80;;;;;;6710072;25;80644;-55
2024/04/10 03:47:07;;;;;;;13.20;4.90;;;26.30;45.90;;;;;;6712618;25;79034;-56
2024/04/10 03:50:08;;;;;;;12.85;5.43;;;26.30;45.90;;;;;;6713598;25;78835;-57
2024/04/10 03:53:08;;;;;;;10.88;4.50;;;26.30;45.90;;;;;;6713170;25;78624;-61
2024/04/10 03:56:09;;;;;;;12.00;5.35;;;26.40;45.90;;;;;;6709148;25;79206;-61
2024/04/10 03:59:09;;;;;;;13.75;5.50;;;26.30;46.00;;;;;;6706951;25;78644;-61
2024/04/10 04:02:10;;;;;;;13.05;5.50;;;26.30;45.90;;;;;;6712069;25;79252;-61
2024/04/10 04:05:10;;;;;;;10.95;4.63;;;26.30;46.00;;;;;;6706358;25;84210;-62
2024/04/10 04:08:12;;;;;;;16.05;5.82;;;26.30;46.00;;;;;;6702117;25;80325;-63
2024/04/10 04:11:12;;;;;;;27.25;7.00;;;26.30;46.20;;;;;;6705803;25;81076;-56
2024/04/10 04:14:13;;;;;;;20.15;6.65;;;26.20;46.40;;;;;;6702531;25;79389;-58
2024/04/10 04:17:13;;;;;;;33.63;7.35;;;26.30;46.40;;;;;;6710178;25;79288;-58
2024/04/10 04:20:14;;;;;;;27.90;6.60;;;26.30;46.40;;;;;;6664080;25;80005;-59
2024/04/10 04:23:14;;;;;;;31.58;6.22;;;26.30;47.40;;;;;;6699186;25;79408;-51
2024/04/10 04:26:15;;;;;;;22.73;6.05;;;26.30;46.40;;;;;;6684936;25;79171;-56
2024/04/10 04:29:15;;;;;;;27.25;6.07;;;26.30;47.10;;;;;;6696756;25;79217;-62
2024/04/10 04:32:16;;;;;;;24.90;6.22;;;26.30;47.10;;;;;;6706132;25;80889;-64
2024/04/10 04:35:16;;;;;;;21.08;6.18;;;26.30;47.10;;;;;;6703691;25;79145;-64
2024/04/10 04:38:17;;;;;;;20.95;6.05;;;26.30;47.20;;;;;;6694068;25;80105;-61
2024/04/10 04:41:17;;;;;;;24.15;6.53;;;26.30;47.40;;;;;;6695341;25;78953;-64
2024/04/10 04:44:18;;;;;;;25.02;5.93;;;26.30;47.40;;;;;;6707145;25;80482;-63
2024/04/10 04:47:18;;;;;;;16.50;5.75;;;26.30;47.30;;;;;;6710528;25;79562;-63
2024/04/10 04:50:19;;;;;;;20.45;5.25;;;26.30;47.20;;;;;;6697521;25;79480;-63
2024/04/10 04:53:19;;;;;;;21.50;6.57;;;26.30;47.20;;;;;;6708189;25;79705;-64
2024/04/10 04:56:20;;;;;;;19.58;6.13;;;26.20;47.40;;;;;;6702689;25;80550;-63
2024/04/10 04:59:20;;;;;;;17.63;5.38;;;26.30;47.70;;;;;;6693626;25;79699;-64
2024/04/10 05:02:22;;;;;;;17.52;5.40;;;26.30;47.80;;;;;;6710062;25;79297;-65
2024/04/10 05:05:22;;;;;;;12.63;5.80;;;26.20;47.90;;;;;;6685271;26;78786;-65
2024/04/10 05:08:23;;;;;;;20.02;5.53;;;26.30;47.50;;;;;;6707469;25;79059;-59
2024/04/10 05:11:23;;;;;;;21.67;5.22;;;26.30;47.90;;;;;;6708502;25;82212;-59
2024/04/10 05:14:24;;;;;;;23.63;5.60;;;26.30;47.80;;;;;;6707222;25;82935;-58
2024/04/10 05:17:24;;;;;;;13.02;5.13;;;26.30;48.00;;;;;;6711344;25;82553;-62
2024/04/10 05:20:25;;;;;;;12.32;4.93;;;26.30;48.00;;;;;;6702720;25;78963;-60
2024/04/10 05:23:25;;;;;;;16.70;6.20;;;26.30;48.00;;;;;;6709580;25;79279;-60
2024/04/10 05:26:26;;;;;;;18.77;5.13;;;26.30;47.90;;;;;;6710293;25;79153;-63
2024/04/10 05:29:26;;;;;;;14.85;5.60;;;26.30;47.90;;;;;;6710306;25;79548;-64
2024/04/10 05:32:27;;;;;;;14.60;4.57;;;26.30;48.00;;;;;;6701358;25;84594;-64
2024/04/10 05:35:27;;;;;;;21.80;5.03;;;26.30;48.00;;;;;;6701785;25;79714;-66
2024/04/10 05:38:28;;;;;;;27.33;5.90;;;26.30;48.10;;;;;;6710459;25;78950;-64
2024/04/10 05:41:28;;;;;;;41.00;6.75;;;26.30;48.10;;;;;;6710273;25;80082;-64
2024/04/10 05:44:29;;;;;;;46.17;7.05;;;26.30;48.10;;;;;;6708765;25;79026;-58
2024/04/10 05:47:30;;;;;;;112.22;10.52;;;26.30;48.10;;;;;;6691276;25;83535;-57
2024/04/10 05:50:31;;;;;;;95.47;11.18;;;26.30;48.50;;;;;;6703117;25;90073;-57
2024/04/10 05:53:33;;;;;;;99.15;12.40;;;26.30;48.30;;;;;;6704154;25;81396;-59
2024/04/10 05:56:33;;;;;;;102.90;11.85;;;26.30;48.40;;;;;;6704079;25;82532;-57
2024/04/10 05:59:34;;;;;;;155.77;14.93;;;26.30;48.30;;;;;;6701559;25;89307;-56
2024/04/10 06:02:38;;;;;;;165.85;17.23;;;26.30;48.60;;;;;;6705068;25;82394;-59
2024/04/10 06:05:39;;;;;;;144.60;16.48;;;26.30;48.50;;;;;;6699696;25;86080;-59
2024/04/10 06:08:40;;;;;;;172.27;17.77;;;26.30;48.80;;;;;;6703517;25;83073;-58
2024/04/10 06:11:40;;;;;;;173.43;17.60;;;26.30;48.90;;;;;;6704445;25;81728;-59
2024/04/10 06:14:41;;;;;;;145.27;13.82;;;26.30;49.00;;;;;;6697087;25;81439;-60
2024/04/10 06:17:41;;;;;;;160.25;15.70;;;26.40;49.00;;;;;;6705274;25;81650;-59
2024/04/10 06:20:42;;;;;;;127.63;13.98;;;26.30;49.10;;;;;;6681464;25;86575;-59
2024/04/10 06:23:42;;;;;;;112.45;12.93;;;26.30;48.90;;;;;;6701519;25;82807;-60
2024/04/10 06:26:43;;;;;;;74.57;11.95;;;26.40;48.90;;;;;;6704295;25;81895;-60
2024/04/10 06:29:43;;;;;;;115.75;12.02;;;26.30;48.80;;;;;;6702329;25;84592;-59
2024/04/10 06:32:44;;;;;;;99.15;10.73;;;26.40;49.00;;;;;;6701009;25;81855;-59
2024/04/10 06:35:44;;;;;;;83.15;10.77;;;26.40;49.00;;;;;;6698234;25;82637;-59
2024/04/10 06:38:45;;;;;;;63.42;9.40;;;26.30;49.10;;;;;;6709169;25;81742;-59
2024/04/10 06:41:45;;;;;;;49.97;8.18;;;26.30;49.50;;;;;;6711391;25;83151;-57
2024/04/10 06:44:46;;;;;;;62.35;9.25;;;26.30;49.40;;;;;;6714612;25;79048;-58
2024/04/10 06:47:46;;;;;;;44.40;7.00;;;26.30;49.50;;;;;;6712444;25;78970;-58
2024/04/10 06:50:47;;;;;;;44.92;6.82;;;26.20;49.50;;;;;;6709557;25;79265;-56
2024/04/10 06:53:47;;;;;;;37.38;6.90;;;26.30;49.60;;;;;;6709244;25;79740;-57
2024/04/10 06:56:48;;;;;;;34.55;5.72;;;26.20;49.60;;;;;;6714097;25;79190;-58
2024/04/10 06:59:48;;;;;;;26.33;5.40;;;26.20;49.60;;;;;;6714197;25;79261;-58
2024/04/10 07:02:49;;;;;;;37.92;6.50;;;26.20;49.60;;;;;;6715371;25;79157;-59
2024/04/10 07:05:49;;;;;;;40.08;6.10;;;26.20;49.90;;;;;;6714820;25;80495;-60
2024/04/10 07:08:50;;;;;;;32.50;6.28;;;26.20;49.80;;;;;;6712299;25;79275;-59
2024/04/10 07:11:51;;;;;;;24.75;4.35;;;26.20;49.80;;;;;;6712098;25;82773;-59
2024/04/10 07:14:51;;;;;;;36.83;5.72;;;26.20;49.80;;;;;;6715084;25;79153;-62
2024/04/10 07:17:51;;;;;;;16.00;4.38;;;26.20;49.80;;;;;;6700607;25;80560;-62
2024/04/10 07:20:52;;;;;;;27.58;4.63;;;26.20;49.90;;;;;;6691887;25;79511;-64
2024/04/10 07:23:52;;;;;;;21.83;5.88;;;26.20;49.60;;;;;;6705118;25;78776;-62
2024/04/10 07:26:53;;;;;;;19.02;4.38;;;26.20;49.60;;;;;;6712380;25;78984;-62
2024/04/10 07:29:56;;;;;;;20.27;4.57;;;26.30;49.60;;;;;;6703672;25;80856;-62
2024/04/10 07:32:56;;;;;;;14.00;3.92;;;26.20;49.70;;;;;;6705893;25;79822;-62
2024/04/10 07:35:57;;;;;;;10.98;3.78;;;26.20;49.60;;;;;;6711703;25;79382;-62
2024/04/10 07:38:57;;;;;;;20.15;4.30;;;26.20;49.60;;;;;;6711715;25;79024;-62
2024/04/10 07:41:58;;;;;;;19.35;4.80;;;26.20;49.60;;;;;;6711677;25;80286;-61
2024/04/10 07:44:59;;;;;;;10.45;3.90;;;26.20;49.60;;;;;;6703924;25;80227;-61
2024/04/10 07:48:00;;;;;;;14.50;3.90;;;26.20;49.80;;;;;;6712618;25;79007;-61
2024/04/10 07:51:00;;;;;;;16.33;3.83;;;26.20;49.50;;;;;;6711114;25;80970;-61
2024/04/10 07:54:01;;;;;;;17.40;4.53;;;26.20;49.60;;;;;;6710673;25;79704;-58
2024/04/10 07:57:03;;;;;;;18.30;4.03;;;26.20;49.50;;;;;;6707039;25;79466;-59
2024/04/10 08:00:03;;;;;;;18.63;3.78;;;26.20;49.60;;;;;;6713481;25;79945;-59
2024/04/10 08:03:11;;;;;;;13.00;3.80;;;26.20;49.40;;;;;;6700475;25;80128;-59
2024/04/10 08:06:12;;;;;;;15.45;3.70;;;26.20;49.40;;;;;;6696520;25;82128;-60
2024/04/10 08:09:13;;;;;;;13.77;4.32;;;26.20;49.50;;;;;;6708499;25;79164;-59
2024/04/10 08:12:13;;;;;;;15.00;3.90;;;26.30;49.50;;;;;;6709958;25;78625;-60
2024/04/10 08:15:14;;;;;;;14.73;3.78;;;26.20;49.40;;;;;;6702785;25;78794;-62
2024/04/10 08:18:15;;;;;;;10.93;3.72;;;26.20;49.30;;;;;;6711249;25;78971;-60
2024/04/10 08:21:16;;;;;;;18.88;4.00;;;26.30;49.20;;;;;;6710836;25;79180;-60
2024/04/10 08:24:16;;;;;;;13.07;3.50;;;26.20;49.10;;;;;;6702317;25;79097;-66
2024/04/10 08:27:17;;;;;;;12.27;3.22;;;26.30;49.00;;;;;;6712702;25;82478;-70
2024/04/10 08:30:17;;;;;;;36.45;4.63;;;26.30;49.00;;;;;;6701840;25;79742;-63
2024/04/10 08:33:18;;;;;;;19.42;3.92;;;26.30;48.90;;;;;;6708011;25;78834;-62
2024/04/10 08:36:18;;;;;;;14.05;4.03;;;26.20;48.90;;;;;;6706236;25;79276;-62
2024/04/10 08:39:19;;;;;;;18.35;3.72;;;26.30;48.90;;;;;;6703113;25;80531;-63
2024/04/10 08:42:19;;;;;;;15.48;3.40;;;26.30;48.80;;;;;;6709692;25;82951;-61
2024/04/10 08:45:20;;;;;;;15.45;4.97;;;26.30;48.70;;;;;;6709324;25;79507;-61
2024/04/10 08:48:21;;;;;;;14.55;3.50;;;26.30;48.60;;;;;;6713240;25;79155;-61
2024/04/10 08:51:21;;;;;;;11.32;4.13;;;26.30;48.50;;;;;;6705172;25;79132;-63
2024/04/10 08:54:23;;;;;;;12.75;4.25;;;26.20;48.40;;;;;;6702178;25;79151;-61
2024/04/10 08:57:23;;;;;;;15.40;4.45;;;26.20;48.50;;;;;;6715260;25;79009;-61
2024/04/10 09:00:24;;;;;;;24.55;4.13;;;26.30;48.40;;;;;;6716328;25;80318;-61
2024/04/10 09:03:24;;;;;;;9.85;4.20;;;26.30;48.20;;;;;;6711787;25;79482;-60
2024/04/10 09:06:25;;;;;;;10.07;4.35;;;26.30;48.00;;;;;;6707059;25;79330;-62
2024/04/10 09:09:25;;;;;;;15.45;4.28;;;26.30;48.00;;;;;;6712825;25;82928;-60
2024/04/10 09:12:26;;;;;;;13.77;4.45;;;26.30;48.00;;;;;;6715548;25;78661;-59
2024/04/10 09:17:00;;;;;;;15.15;4.18;;;26.30;48.00;;;;;;6645727;26;75408;-60
2024/04/10 09:20:00;;;;;;;11.80;4.72;;;26.30;47.90;;;;;;6526699;26;82841;-59
2024/04/10 09:23:01;;;;;;;12.07;3.83;;;26.40;47.90;;;;;;6547473;26;79406;-61
2024/04/10 09:26:02;;;;;;;8.57;3.80;;;26.30;47.60;;;;;;6593078;26;81143;-60
2024/04/10 09:29:03;;;;;;;15.32;3.78;;;26.30;47.50;;;;;;6603667;26;82301;-59
2024/04/10 09:32:07;;;;;;;17.08;4.35;;;26.40;47.40;;;;;;6604617;26;79588;-59
2024/04/10 09:35:09;;;;;;;20.67;5.95;;;26.40;47.40;;;;;;6599640;26;79064;-58
2024/04/10 09:38:09;;;;;;;29.52;6.47;;;26.40;47.20;;;;;;6608816;26;79264;-59
2024/04/10 09:41:11;;;;;;;30.98;7.32;;;26.30;47.20;;;;;;6604159;26;78987;-60
2024/04/10 09:44:11;;;;;;;20.58;6.63;;;26.40;47.30;;;;;;6599503;26;79092;-61
2024/04/10 09:47:12;;;;;;;21.80;6.47;;;26.40;47.50;;;;;;6600835;26;79125;-59
2024/04/10 09:50:13;;;;;;;23.27;7.00;;;26.30;48.00;;;;;;6599138;26;79366;-56
2024/04/10 09:53:15;;;;;;;30.58;7.53;;;26.30;48.90;;;;;;6604709;26;80089;-59
2024/04/10 09:56:16;;;;;;;23.65;5.85;;;26.30;50.20;;;;;;6603072;26;79035;-59
2024/04/10 09:59:19;;;;;;;25.15;6.60;;;26.30;52.50;;;;;;6600915;26;78931;-61
2024/04/10 10:02:20;;;;;;;17.20;6.15;;;26.30;52.30;;;;;;6601155;26;78973;-59
2024/04/10 10:05:21;;;;;;;36.45;5.40;;;26.30;54.10;;;;;;6608131;26;83210;-60
2024/04/10 10:08:23;;;;;;;19.23;5.07;;;26.30;53.70;;;;;;6601040;26;80204;-59
2024/04/10 10:11:23;;;;;;;22.17;6.90;;;26.30;55.20;;;;;;6600385;26;78595;-58
2024/04/10 10:14:24;;;;;;;14.40;5.43;;;26.30;56.30;;;;;;6596168;26;79339;-59
2024/04/10 10:17:26;;;;;;;23.35;5.80;;;26.30;55.40;;;;;;6599078;26;78966;-59
2024/04/10 10:20:29;;;;;;;23.77;5.18;;;26.30;55.50;;;;;;6606679;26;79384;-60
2024/04/10 10:23:30;;;;;;;25.25;6.15;;;26.40;55.40;;;;;;6600517;26;78901;-59
2024/04/10 10:26:30;;;;;;;16.23;5.03;;;26.30;57.50;;;;;;6590882;26;78898;-59
2024/04/10 10:29:31;;;;;;;20.23;5.03;;;26.30;58.60;;;;;;6562511;26;78955;-60
2024/04/10 10:32:32;;;;;;;14.55;4.50;;;26.30;58.50;;;;;;6573888;26;86500;-60
2024/04/10 10:35:32;;;;;;;16.75;4.35;;;26.30;57.60;;;;;;6564789;26;79192;-59
2024/04/10 10:38:33;;;;;;;18.65;4.88;;;26.30;58.30;;;;;;6573743;26;79885;-63
2024/04/10 10:41:34;;;;;;;17.35;4.80;;;26.30;57.90;;;;;;6551168;26;79686;-64
2024/04/10 10:44:35;;;;;;;13.80;4.88;;;26.30;57.30;;;;;;6567072;26;79219;-63
2024/04/10 10:47:35;;;;;;;14.77;4.30;;;26.20;56.80;;;;;;6565785;26;80847;-62
2024/04/10 10:50:36;;;;;;;23.00;4.47;;;26.30;56.30;;;;;;6580914;26;79078;-62
2024/04/10 10:53:36;;;;;;;17.15;4.65;;;26.30;55.90;;;;;;6575145;26;78906;-62
2024/04/10 10:56:37;;;;;;;19.20;5.97;;;26.30;56.90;;;;;;6578587;26;79045;-62
2024/04/10 10:59:37;;;;;;;16.90;4.32;;;26.30;58.40;;;;;;6564216;26;85552;-59
2024/04/10 11:02:38;;;;;;;18.35;4.38;;;26.30;57.40;;;;;;6574063;26;78802;-60
2024/04/10 11:05:38;;;;;;;21.90;5.25;;;26.30;58.40;;;;;;6579385;26;78739;-61
2024/04/10 11:08:39;;;;;;;16.38;4.60;;;26.30;59.80;;;;;;6564403;26;90359;-59
2024/04/10 11:11:39;;;;;;;13.48;4.43;;;26.30;57.00;;;;;;6568672;26;79327;-59
2024/04/10 11:14:40;;;;;;;17.38;4.13;;;26.30;58.40;;;;;;6563026;26;79786;-58
2024/04/10 11:17:40;;;;;;;8.00;3.47;;;26.30;59.10;;;;;;6574523;26;79552;-59
2024/04/10 11:20:41;;;;;;;17.83;4.10;;;26.30;56.70;;;;;;6583201;26;80295;-58
2024/04/10 11:23:41;;;;;;;12.23;3.50;;;26.30;56.30;;;;;;6578204;26;80167;-58
2024/04/10 11:26:42;;;;;;;12.68;4.20;;;26.20;57.40;;;;;;6577706;26;79172;-56
2024/04/10 11:29:43;;;;;;;10.90;3.17;;;26.20;55.50;;;;;;6581471;26;78862;-57
2024/04/10 11:32:43;;;;;;;9.00;3.40;;;26.20;54.90;;;;;;6579678;26;80640;-60
2024/04/10 11:35:44;;;;;;;13.52;4.18;;;26.20;55.10;;;;;;6579982;26;81695;-59
2024/04/10 11:38:45;;;;;;;12.15;3.50;;;26.20;55.90;;;;;;6578749;26;78891;-60
2024/04/10 11:41:45;;;;;;;13.75;4.13;;;26.20;57.90;;;;;;6576268;26;79542;-60
2024/04/10 11:44:46;;;;;;;13.35;3.92;;;26.20;57.70;;;;;;6568781;26;79521;-59
2024/04/10 11:47:48;;;;;;;18.20;3.85;;;26.30;55.40;;;;;;6563367;26;83187;-62
2024/04/10 11:50:49;;;;;;;15.30;4.55;;;26.20;54.80;;;;;;6568027;26;79304;-60
2024/04/10 11:53:50;;;;;;;15.75;3.65;;;26.20;53.60;;;;;;6569781;26;79179;-59
2024/04/10 11:56:50;;;;;;;15.40;4.03;;;26.20;54.90;;;;;;6572140;26;81302;-61
2024/04/10 11:59:51;;;;;;;9.55;3.88;;;26.20;54.60;;;;;;6575683;26;79295;-61
2024/04/10 12:02:52;;;;;;;8.60;3.17;;;26.20;54.50;;;;;;6584568;26;80554;-59
2024/04/10 12:05:53;;;;;;;27.90;4.15;;;26.20;55.20;;;;;;6579872;26;79621;-60
2024/04/10 12:08:53;;;;;;;12.27;3.55;;;26.30;56.20;;;;;;6578659;26;79597;-59
2024/04/10 12:11:54;;;;;;;14.20;3.17;;;26.30;55.70;;;;;;6580508;26;80315;-59
2024/04/10 12:14:54;;;;;;;9.02;3.08;;;26.30;54.70;;;;;;6577440;26;78772;-61
2024/04/10 12:17:55;;;;;;;11.00;3.53;;;26.30;54.80;;;;;;6572686;26;79091;-59
2024/04/10 12:20:55;;;;;;;9.88;2.97;;;26.30;56.20;;;;;;6581346;26;79032;-60
2024/04/10 12:23:56;;;;;;;8.05;3.10;;;26.30;55.30;;;;;;6577595;26;81247;-61
2024/04/10 12:26:56;;;;;;;9.20;3.33;;;26.30;54.80;;;;;;6568595;26;78771;-59
2024/04/10 12:29:57;;;;;;;6.88;2.83;;;26.30;53.40;;;;;;6573450;26;79594;-59
2024/04/10 12:32:57;;;;;;;14.57;4.13;;;26.30;53.90;;;;;;6580586;26;78682;-59
2024/04/10 12:39:17;;;;;;;11.55;3.63;;;26.20;54.50;;;;;;6573298;26;82452;-59
2024/04/10 12:42:18;;;;;;;8.25;3.85;;;26.20;54.00;;;;;;6570798;26;83291;-59
2024/04/10 12:45:18;;;;;;;8.18;3.58;;;26.20;54.30;;;;;;6538159;26;93167;-59
2024/04/10 12:48:19;;;;;;;7.57;3.38;;;26.20;54.50;;;;;;6565100;26;79385;-53
2024/04/10 12:51:20;;;;;;;9.95;3.08;;;26.20;53.70;;;;;;6580049;26;80329;-59
2024/04/10 12:54:21;;;;;;;7.70;3.67;;;26.20;53.60;;;;;;6575748;26;79608;-58
2024/04/10 12:57:22;;;;;;;11.52;3.63;;;26.10;54.00;;;;;;6580462;26;81485;-60
2024/04/10 13:00:22;;;;;;;17.13;4.30;;;26.10;54.00;;;;;;6566127;26;81219;-59
2024/04/10 13:03:23;;;;;;;9.18;3.85;;;26.00;54.70;;;;;;6572600;26;79464;-59
2024/04/10 13:06:24;;;;;;;21.55;4.93;;;26.00;54.30;;;;;;6579965;26;78867;-60
2024/04/10 13:09:25;;;;;;;28.67;5.43;;;26.00;53.40;;;;;;6574802;26;79854;-58
2024/04/10 13:12:26;;;;;;;12.23;4.50;;;25.90;53.70;;;;;;6583795;26;79426;-60
2024/04/10 13:15:27;;;;;;;19.58;5.80;;;25.90;55.10;;;;;;6577909;26;78833;-58
2024/04/10 13:18:27;;;;;;;22.00;5.13;;;25.90;53.60;;;;;;6545360;26;80047;-59
2024/04/10 13:21:28;;;;;;;16.13;4.95;;;25.90;53.20;;;;;;6552416;26;80906;-59
2024/04/10 13:24:29;;;;;;;15.98;4.70;;;25.90;53.00;;;;;;6582108;26;79184;-60
2024/04/10 13:27:30;;;;;;;27.33;5.95;;;25.90;52.20;;;;;;6582635;26;80114;-59
2024/04/10 13:30:30;;;;;;;22.58;5.18;;;25.90;52.00;;;;;;6583153;26;79108;-59
2024/04/10 13:33:32;;;;;;;14.30;3.95;;;25.90;51.90;;;;;;6578170;26;79053;-60
2024/04/10 13:36:32;;;;;;;18.08;5.00;;;25.90;52.40;;;;;;6563932;26;86534;-60
2024/04/10 13:39:33;;;;;;;17.38;4.88;;;25.90;53.00;;;;;;6579949;26;87354;-59
2024/04/10 13:42:33;;;;;;;29.50;5.55;;;25.90;51.60;;;;;;6581303;26;79226;-60
2024/04/10 13:45:34;;;;;;;18.00;5.38;;;25.90;52.30;;;;;;6574780;26;81971;-61
2024/04/10 13:48:35;;;;;;;13.65;4.80;;;25.90;52.40;;;;;;6573574;26;78887;-62
2024/04/10 13:51:35;;;;;;;15.98;4.43;;;25.90;51.80;;;;;;6585803;26;79028;-60
2024/04/10 13:54:36;;;;;;;20.20;4.60;;;25.90;51.70;;;;;;6578577;26;79928;-61
2024/04/10 13:57:36;;;;;;;13.45;3.85;;;25.90;51.60;;;;;;6562315;26;79426;-60
2024/04/10 14:00:37;;;;;;;20.70;4.90;;;25.90;51.60;;;;;;6575875;26;81545;-61
2024/04/10 14:03:37;;;;;;;16.55;4.80;;;25.90;51.40;;;;;;6583013;26;79047;-59
2024/04/10 14:06:38;;;;;;;24.35;4.68;;;25.90;51.80;;;;;;6581048;26;80643;-58
2024/04/10 14:09:38;;;;;;;26.52;5.28;;;25.90;51.70;;;;;;6585665;26;79042;-59
2024/04/10 14:12:39;;;;;;;19.83;5.10;;;25.90;50.40;;;;;;6581068;26;86979;-60
2024/04/10 14:15:39;;;;;;;12.95;4.68;;;25.80;50.30;;;;;;6571976;26;81088;-59
2024/04/10 14:18:41;;;;;;;14.15;4.05;;;25.80;49.80;;;;;;6577681;26;79449;-59
2024/04/10 14:21:41;;;;;;;13.32;4.00;;;25.80;50.50;;;;;;6581925;26;79054;-60
2024/04/10 14:24:42;;;;;;;11.57;3.97;;;25.80;49.60;;;;;;6580782;26;78837;-59
2024/04/10 14:27:46;;;;;;;12.10;3.67;;;25.70;49.60;;;;;;6578874;26;78942;-58
2024/04/10 14:30:47;;;;;;;18.90;4.22;;;25.70;50.80;;;;;;6578935;26;80056;-59
2024/04/10 14:33:47;;;;;;;19.25;4.57;;;25.80;50.90;;;;;;6581861;26;78859;-58
2024/04/10 14:36:48;;;;;;;12.00;3.80;;;25.70;51.10;;;;;;6581427;26;83735;-59
2024/04/10 14:39:48;;;;;;;9.95;3.42;;;25.70;52.10;;;;;;6581592;26;78904;-59
2024/04/10 14:42:49;;;;;;;13.85;4.75;;;25.70;51.50;;;;;;6579959;26;82462;-60
2024/04/10 14:45:49;;;;;;;10.32;3.47;;;25.70;50.90;;;;;;6573548;26;79119;-58
2024/04/10 14:48:50;;;;;;;7.93;3.13;;;25.70;50.10;;;;;;6567653;26;80747;-60
2024/04/10 14:51:50;;;;;;;12.50;3.38;;;25.70;50.20;;;;;;6568637;26;81675;-61
2024/04/10 14:54:51;;;;;;;12.88;3.40;;;25.70;49.70;;;;;;6576681;26;81460;-59
2024/04/10 14:57:51;;;;;;;23.42;3.35;;;25.60;49.90;;;;;;6578282;26;78903;-60
2024/04/10 15:00:52;;;;;;;9.95;3.63;;;25.60;49.90;;;;;;6558918;26;81991;-60
2024/04/10 15:03:54;;;;;;;9.15;2.65;;;25.60;49.50;;;;;;6574255;26;79513;-60
2024/04/10 15:06:54;;;;;;;8.07;2.60;;;25.60;49.40;;;;;;6579253;26;83222;-58
2024/04/10 15:09:55;;;;;;;7.13;3.25;;;25.60;50.10;;;;;;6578646;26;85593;-57
2024/04/10 15:12:55;;;;;;;8.75;3.33;;;25.50;49.50;;;;;;6576698;26;78965;-59
2024/04/10 15:15:56;;;;;;;5.60;2.50;;;25.50;49.10;;;;;;6576917;26;82801;-61
2024/04/10 15:18:57;;;;;;;7.00;2.75;;;25.50;48.90;;;;;;6576205;26;79438;-59
2024/04/10 15:21:58;;;;;;;5.45;3.00;;;25.50;48.60;;;;;;6578450;26;78983;-60
2024/04/10 15:24:58;;;;;;;8.43;2.47;;;25.60;48.60;;;;;;6579915;26;79602;-61
2024/04/10 15:27:59;;;;;;;6.53;2.72;;;25.60;48.90;;;;;;6579137;26;79228;-60
2024/04/10 15:31:00;;;;;;;6.10;2.25;;;25.60;48.40;;;;;;6580027;26;80508;-62
2024/04/10 15:34:00;;;;;;;13.88;3.00;;;25.60;48.50;;;;;;6579492;26;79673;-63